< < Back
Terminal Aerodrome Forecast


Current Version              Previous Versions:   1  2  3  4  5  6  7  8  9  

Terminal Aerodrome Forecast

518
FTUS42 KTAE 311738
TAFDHN
TAF
KDHN 311738Z 3118/0118 17005KT P6SM SCT030
     FM312100 20006KT P6SM VCTS SCT030CB BKN045
      TEMPO 3121/3124 VRB15G25KT 3SM TSRA BR BKN030CB
     FM010100 VRB03KT P6SM SCT040 BKN100
      TEMPO 0109/0113 5SM BR
     FM011600 VRB03KT P6SM VCTS SCT025CB BKN040=



Latest METAR

388
SAUS70 KWBC 011400 RRF
MTRDHN
METAR KDHN 011353Z 02007KT 10SM FEW013 28/23 A2994 RMK AO2 SLP134
T02780233


USA.gov is the U.S. government's official web portal to all federal, state and local government web resources and services.